Gwinner, North Dakota
Current Conditions -  °F | °C
As of 4:35 PM on Sunday 25 Jan 2015 (Local Time) from KGWR Reporting Station
Overcast Overcast  
Wind Chill: 19°   Ceiling: 2200
Heat Index: 28°   Visibility: 10mi
Dew Point: 28°   Wind: 10mph
Humidity: 100%   Direction: 200°SSW
Pressure: 29.99"   Gusts: NA
Location:  46.23°N, 97.66°W
Report Text: KGWR 252235Z AUTO 20009KT 10SM OVC022 M02/M02 A2999 RMK A01 P000
Loading
Personal Weather Stations






























Interactive Weather Map New forecast layout! Learn more

10-Day Weather Forecast

Advertisements
Track Severe Weather on mobile